Hlavní strana
METAR-TAF:

METAR-TAF

Letiště :

Letiště Nội Bài

Hanoj, Vietnam

zeměpisná šířka: 21-01N, zeměpisná délka: 105-48E, výška: 6 m

Aktuální stav počasí

Zpráva byla vytvořena před 33 minutami, v 23:00 UTC
Severovýchodní vítr 9 kt
Teplota 21°C
Vlhkost vzduchu 100%
Tlak 1014 hPa
Viditelnost 10 km a více
Skoro jasno ve výšce 1000 ft
Oblačno až skoro zataženo ve výšce 2000 ft
slabý déšť

METAR: VVNB 152300Z 04009KT 9999 -RA FEW010 BKN020 21/21 Q1014 NOSIG

Čas: 06:33 (23:33 UTC)

Předpověď počasí

Zpráva byla vytvořena před 4 hodinami a 3 minutami, v 19:30 UTC
Předpověď platná od 15 v 20 UTC do 16 v 18 UTC
Severovýchodní vítr 10 kt
Viditelnost 10 km a více
Polojasno ve výšce 2000 ft
Dočasný
od 15 v 20 UTC do 15 v 23 UTC
Severozápadní vítr 15 kt s nárazy do 25 kt
Viditelnost: 2000 m
Oblačno až skoro zataženo ve výšce 1000 ft
Skoro jasno ve výšce 2700 ft, Cumulonimbus.
bouřka, silný déšť

TAF: VVNB 151930Z 1520/1618 05010KT 9999 SCT020 TEMPO 1520/1523 32015G25KT 2000 +TSRA BKN010 FEW027CB

Stav a předpovědi počasí z více než 4 000 letišť (zprávy METAR a TAF).

Červené a žluté tečky na mapě představují dostupné meteorologické stanice.

Když kurzor umístíte na tečku, zobrazí se název stanice.

Pak kliknutím zobrazíte stav a předpověď počasí.

Chcete-li změnit mapu, kliknutím na zelené tlačítko se znaménkem +mapu přiblížíte, kliknutím na zelené tlačítko se znaménkem – mapu oddálíte a kliknutím na zelené šipky přejdete na sousední mapy.


METAR-TAF: